createdAt,value
2023-11-04T00:02:30.940Z,11.91
2023-11-04T00:05:03.295Z,11.95
2023-11-04T00:07:36.456Z,11.96
2023-11-04T00:10:09.846Z,11.97
2023-11-04T00:12:42.537Z,11.99
2023-11-04T00:15:15.277Z,12.01
2023-11-04T00:17:47.835Z,12.00
2023-11-04T00:20:21.324Z,12.02
2023-11-04T00:22:53.829Z,12.03
2023-11-04T00:25:26.160Z,12.03
2023-11-04T00:27:59.016Z,12.04
2023-11-04T00:30:31.855Z,12.04
2023-11-04T00:33:04.595Z,12.04
2023-11-04T00:35:36.908Z,12.05
2023-11-04T00:38:10.212Z,12.04
2023-11-04T00:40:44.326Z,12.04
2023-11-04T00:43:17.030Z,12.05
2023-11-04T00:45:49.543Z,12.07
2023-11-04T00:48:22.050Z,12.05
2023-11-04T00:50:54.546Z,12.06
2023-11-04T00:53:26.987Z,12.04
2023-11-04T00:55:59.739Z,12.03
2023-11-04T00:58:32.154Z,12.01
2023-11-04T01:01:04.688Z,12.00
2023-11-04T01:03:37.641Z,12.04
2023-11-04T01:06:10.043Z,12.05
2023-11-04T01:08:42.386Z,12.07
2023-11-04T01:11:15.029Z,12.07
2023-11-04T01:13:48.329Z,12.07
2023-11-04T01:16:20.893Z,12.07
2023-11-04T01:18:53.328Z,12.09
2023-11-04T01:21:25.995Z,12.11
2023-11-04T01:23:58.506Z,12.13
2023-11-04T01:26:32.173Z,12.14
2023-11-04T01:29:04.727Z,12.17
2023-11-04T01:31:37.312Z,12.19
2023-11-04T01:34:11.641Z,12.19
2023-11-04T01:36:44.039Z,12.20
2023-11-04T01:39:16.432Z,12.22
2023-11-04T01:41:48.998Z,12.25
2023-11-04T01:44:21.532Z,12.26
2023-11-04T01:46:53.902Z,12.26
2023-11-04T01:49:27.425Z,12.28
2023-11-04T01:52:00.232Z,12.28
2023-11-04T01:54:32.825Z,12.30
2023-11-04T01:57:05.459Z,12.29
2023-11-04T01:59:37.782Z,12.29
2023-11-04T02:02:11.965Z,12.31
2023-11-04T02:04:44.744Z,12.29
2023-11-04T02:07:17.153Z,12.28
2023-11-04T02:09:49.599Z,12.31
2023-11-04T02:12:24.321Z,12.30
2023-11-04T02:14:56.857Z,12.32
2023-11-04T02:17:29.382Z,12.35
2023-11-04T02:20:04.133Z,12.37
2023-11-04T02:22:36.989Z,12.39
2023-11-04T02:25:09.872Z,12.41
2023-11-04T02:27:47.575Z,12.44
2023-11-04T02:30:20.136Z,12.45
2023-11-04T02:32:52.865Z,12.44
2023-11-04T02:35:26.889Z,12.45
2023-11-04T02:37:59.257Z,12.45
2023-11-04T02:40:32.010Z,12.45
2023-11-04T02:43:04.466Z,12.42
2023-11-04T02:45:38.003Z,12.42
2023-11-04T02:48:10.772Z,12.44
2023-11-04T02:50:43.143Z,12.44
2023-11-04T02:53:15.600Z,12.43
2023-11-04T02:55:48.150Z,12.44
2023-11-04T02:58:20.699Z,12.47
2023-11-04T03:00:53.608Z,12.49
2023-11-04T03:03:26.389Z,12.50
2023-11-04T03:05:59.301Z,12.51
2023-11-04T03:08:31.739Z,12.53
2023-11-04T03:11:04.213Z,12.53
2023-11-04T03:13:36.897Z,12.51
2023-11-04T03:16:10.110Z,12.52
2023-11-04T03:18:42.600Z,12.51
2023-11-04T03:21:15.025Z,12.54
2023-11-04T03:23:48.650Z,12.55
2023-11-04T03:26:21.364Z,12.55
2023-11-04T03:28:54.263Z,12.56
2023-11-04T03:31:26.764Z,12.56
2023-11-04T03:33:59.722Z,12.58
2023-11-04T03:36:32.389Z,12.59
2023-11-04T03:39:05.044Z,12.59
2023-11-04T03:41:37.438Z,12.60
2023-11-04T03:44:10.511Z,12.62
2023-11-04T03:46:42.931Z,12.63
2023-11-04T03:49:15.563Z,12.63
2023-11-04T03:51:48.132Z,12.62
2023-11-04T03:54:20.605Z,12.63
2023-11-04T03:56:53.055Z,12.61
2023-11-04T03:59:25.365Z,12.62
2023-11-04T04:01:58.085Z,12.61
2023-11-04T04:04:30.604Z,12.62
2023-11-04T04:07:03.120Z,12.62
2023-11-04T04:09:35.570Z,12.62
2023-11-04T04:12:08.798Z,12.63
2023-11-04T04:14:43.831Z,12.64
2023-11-04T04:17:19.574Z,12.66
2023-11-04T04:19:51.900Z,12.68
2023-11-04T04:22:25.361Z,12.68
2023-11-04T04:24:57.737Z,12.67
2023-11-04T04:27:30.195Z,12.70
2023-11-04T04:30:02.709Z,12.68
2023-11-04T04:32:36.000Z,12.69
2023-11-04T04:35:09.249Z,12.70
2023-11-04T04:37:41.905Z,12.74
2023-11-04T04:40:14.925Z,12.76
2023-11-04T04:42:47.536Z,12.78
2023-11-04T04:45:21.502Z,12.79
2023-11-04T04:47:54.095Z,12.80
2023-11-04T04:50:26.711Z,12.82
2023-11-04T04:52:59.117Z,12.83
2023-11-04T04:55:31.887Z,12.84
2023-11-04T04:58:04.290Z,12.83
2023-11-04T05:00:37.229Z,12.84
2023-11-04T05:03:10.251Z,12.88
2023-11-04T05:05:42.746Z,12.90
2023-11-04T05:08:15.269Z,12.91
2023-11-04T05:10:47.760Z,12.92
2023-11-04T05:13:20.313Z,12.92
2023-11-04T05:15:53.046Z,12.93
2023-11-04T05:18:25.917Z,12.93
2023-11-04T05:20:58.586Z,12.96
2023-11-04T05:23:32.529Z,13.00
2023-11-04T05:26:05.217Z,13.00
2023-11-04T05:28:37.725Z,12.98
2023-11-04T05:31:12.117Z,13.00
2023-11-04T05:33:44.096Z,13.02
2023-11-04T05:36:18.047Z,13.05
2023-11-04T05:38:50.880Z,13.07
2023-11-04T05:41:23.469Z,13.10
2023-11-04T05:43:56.035Z,13.10
2023-11-04T05:46:29.201Z,13.11
2023-11-04T05:49:01.797Z,13.14
2023-11-04T05:51:34.488Z,13.17
2023-11-04T05:54:07.001Z,13.19
2023-11-04T05:56:39.762Z,13.21
2023-11-04T05:59:12.368Z,13.24
2023-11-04T06:01:44.865Z,13.26
2023-11-04T06:04:17.606Z,13.27
2023-11-04T06:06:50.251Z,13.30
2023-11-04T06:09:22.603Z,13.33
2023-11-04T06:11:55.053Z,13.39
2023-11-04T06:14:28.089Z,13.40
2023-11-04T06:17:00.489Z,13.44
2023-11-04T06:19:33.402Z,13.45
2023-11-04T06:22:06.485Z,13.47
2023-11-04T06:24:42.360Z,13.48
2023-11-04T06:27:14.830Z,13.46
2023-11-04T06:29:47.520Z,13.44
2023-11-04T06:32:19.963Z,13.45
2023-11-04T06:34:53.159Z,13.46
2023-11-04T06:37:25.958Z,13.50
2023-11-04T06:39:59.337Z,13.54
2023-11-04T06:42:31.764Z,13.55
2023-11-04T06:45:05.720Z,13.58
2023-11-04T06:47:39.050Z,13.62
2023-11-04T06:50:11.670Z,13.62
2023-11-04T06:52:44.791Z,13.63
2023-11-04T06:55:17.295Z,13.63
2023-11-04T06:57:51.602Z,13.64
2023-11-04T07:00:25.126Z,13.64
2023-11-04T07:02:57.673Z,13.64
2023-11-04T07:05:30.618Z,13.65
2023-11-04T07:08:03.595Z,13.65
2023-11-04T07:10:37.806Z,13.64
2023-11-04T07:13:12.701Z,13.66
2023-11-04T07:15:47.219Z,13.65
2023-11-04T07:18:20.946Z,13.63
2023-11-04T07:20:53.546Z,13.65
2023-11-04T07:23:26.117Z,13.65
2023-11-04T07:25:58.677Z,13.63
2023-11-04T07:28:32.695Z,13.64
2023-11-04T07:31:07.214Z,13.63
2023-11-04T07:33:39.889Z,13.66
2023-11-04T07:36:13.954Z,13.68
2023-11-04T07:38:46.510Z,13.70
2023-11-04T07:41:19.081Z,13.70
2023-11-04T07:43:51.634Z,13.71
2023-11-04T07:46:24.802Z,13.74
2023-11-04T07:48:58.508Z,13.74
2023-11-04T07:51:31.029Z,13.78
2023-11-04T07:54:05.143Z,13.83
2023-11-04T07:56:37.667Z,13.86
2023-11-04T07:59:11.358Z,13.86
2023-11-04T08:01:43.938Z,13.89
2023-11-04T08:04:16.611Z,13.91
2023-11-04T08:06:49.245Z,13.93
2023-11-04T08:09:21.990Z,13.91
2023-11-04T08:11:54.577Z,13.94
2023-11-04T08:14:27.010Z,13.96
2023-11-04T08:16:59.502Z,13.98
2023-11-04T08:19:32.122Z,14.01
2023-11-04T08:22:04.977Z,14.03
2023-11-04T08:24:38.943Z,14.05
2023-11-04T08:27:11.493Z,14.08
2023-11-04T08:29:43.822Z,14.11
2023-11-04T08:32:16.313Z,14.12
2023-11-04T08:34:48.942Z,14.15
2023-11-04T08:37:23.039Z,14.26
2023-11-04T08:39:56.721Z,14.26
2023-11-04T08:42:29.394Z,14.29
2023-11-04T08:45:01.984Z,14.32
2023-11-04T08:47:35.172Z,14.35
2023-11-04T08:50:08.601Z,14.35
2023-11-04T08:52:41.835Z,14.33
2023-11-04T08:55:14.649Z,14.34
2023-11-04T08:57:49.362Z,14.37
2023-11-04T09:00:21.285Z,14.39
2023-11-04T09:02:54.349Z,14.41
2023-11-04T09:05:33.500Z,14.38
2023-11-04T09:08:02.871Z,14.39
2023-11-04T09:10:35.377Z,14.41
2023-11-04T09:13:08.010Z,14.43
2023-11-04T09:15:40.513Z,14.46
2023-11-04T09:18:13.111Z,14.49
2023-11-04T09:20:51.080Z,14.52
2023-11-04T09:23:25.381Z,14.55
2023-11-04T09:25:57.783Z,14.58
2023-11-04T09:28:30.169Z,14.60
2023-11-04T09:31:02.720Z,14.59
2023-11-04T09:33:37.282Z,14.55
2023-11-04T09:36:12.057Z,14.57
2023-11-04T09:38:43.756Z,14.54
2023-11-04T09:41:16.791Z,14.51
2023-11-04T09:43:49.209Z,14.52
2023-11-04T09:46:23.826Z,14.55
2023-11-04T09:48:57.696Z,14.59
2023-11-04T09:51:42.013Z,14.62
2023-11-04T09:54:14.959Z,14.67
2023-11-04T09:56:47.864Z,14.71
2023-11-04T09:59:20.246Z,14.72
2023-11-04T10:01:53.451Z,14.75
2023-11-04T10:04:25.933Z,14.77
2023-11-04T10:06:58.771Z,14.80
2023-11-04T10:09:33.685Z,14.84
2023-11-04T10:12:07.333Z,14.85
2023-11-04T10:14:39.886Z,14.85
2023-11-04T10:17:12.867Z,14.86
2023-11-04T10:19:46.374Z,14.88
2023-11-04T10:22:19.126Z,14.89
2023-11-04T10:24:51.708Z,14.88
2023-11-04T10:27:24.408Z,14.90
2023-11-04T10:29:57.076Z,14.91
2023-11-04T10:32:38.294Z,14.93
2023-11-04T10:35:13.658Z,14.96
2023-11-04T10:37:49.942Z,14.96
2023-11-04T10:40:23.140Z,14.96
2023-11-04T10:43:16.955Z,14.95
2023-11-04T10:45:59.066Z,14.97
2023-11-04T10:48:57.514Z,15.00
2023-11-04T10:51:41.407Z,15.02
2023-11-04T10:54:23.982Z,15.03
2023-11-04T10:57:04.654Z,15.06
2023-11-04T10:59:44.600Z,15.06
2023-11-04T11:02:17.083Z,15.08
2023-11-04T11:04:51.803Z,15.10
2023-11-04T11:07:24.326Z,15.10
2023-11-04T11:09:57.427Z,15.10
2023-11-04T11:12:31.248Z,15.12
2023-11-04T11:15:06.208Z,15.12
2023-11-04T11:17:38.754Z,15.12
2023-11-04T11:20:37.550Z,15.14
2023-11-04T11:23:15.016Z,15.17
2023-11-04T11:25:48.061Z,15.19
2023-11-04T11:28:24.980Z,15.23
2023-11-04T11:30:59.905Z,15.19
2023-11-04T11:33:32.760Z,15.16
2023-11-04T11:36:12.299Z,15.13
2023-11-04T11:38:47.455Z,15.12
2023-11-04T11:41:20.080Z,15.14
2023-11-04T11:43:52.932Z,15.13
2023-11-04T11:46:25.474Z,15.16
2023-11-04T11:48:58.259Z,15.18
2023-11-04T11:51:30.948Z,15.16
2023-11-04T11:54:03.793Z,15.13
2023-11-04T11:56:39.237Z,15.16
2023-11-04T11:59:10.599Z,15.21
2023-11-04T12:01:43.591Z,15.23
2023-11-04T12:04:16.018Z,15.25
2023-11-04T12:06:54.541Z,15.29
2023-11-04T12:09:27.140Z,15.29
2023-11-04T12:11:59.814Z,15.31
2023-11-04T12:14:33.781Z,15.33
2023-11-04T12:17:07.919Z,15.30
2023-11-04T12:19:40.466Z,15.30
2023-11-04T12:22:13.531Z,15.30
2023-11-04T12:24:46.107Z,15.28
2023-11-04T12:27:18.633Z,15.29
2023-11-04T12:29:58.250Z,15.30
2023-11-04T12:32:30.882Z,15.31
2023-11-04T12:35:03.611Z,15.32
2023-11-04T12:37:36.597Z,15.36
2023-11-04T12:40:13.747Z,15.37
2023-11-04T12:42:47.808Z,15.38
2023-11-04T12:45:22.452Z,15.40
2023-11-04T12:47:55.403Z,15.41
2023-11-04T12:50:27.993Z,15.41
2023-11-04T12:53:04.883Z,15.44
2023-11-04T12:55:37.943Z,15.45
2023-11-04T12:58:11.403Z,15.46
2023-11-04T13:00:45.490Z,15.46
2023-11-04T13:03:18.371Z,15.49
2023-11-04T13:05:51.024Z,15.52
2023-11-04T13:08:23.539Z,15.50
2023-11-04T13:10:57.804Z,15.50
2023-11-04T13:13:30.158Z,15.53
2023-11-04T13:16:03.317Z,15.55
2023-11-04T13:18:36.551Z,15.53
2023-11-04T13:21:10.118Z,15.57
2023-11-04T13:23:42.656Z,15.58
2023-11-04T13:26:15.312Z,15.58
2023-11-04T13:28:48.221Z,15.58
2023-11-04T13:31:20.909Z,15.56
2023-11-04T13:33:54.385Z,15.56
2023-11-04T13:36:29.447Z,15.57
2023-11-04T13:39:10.268Z,15.55
2023-11-04T13:41:39.559Z,15.54
2023-11-04T13:44:13.786Z,15.55
2023-11-04T13:46:48.396Z,15.55
2023-11-04T13:49:21.131Z,15.56
2023-11-04T13:51:54.191Z,15.56
2023-11-04T13:54:28.413Z,15.58
2023-11-04T13:57:00.946Z,15.58
2023-11-04T13:59:33.730Z,15.58
2023-11-04T14:02:06.319Z,15.58
2023-11-04T14:04:38.976Z,15.56
2023-11-04T14:07:11.695Z,15.56
2023-11-04T14:09:44.585Z,15.56
2023-11-04T14:12:17.161Z,15.56
2023-11-04T14:14:49.970Z,15.56
2023-11-04T14:17:22.544Z,15.55
2023-11-04T14:19:54.973Z,15.55
2023-11-04T14:22:27.342Z,15.54
2023-11-04T14:25:00.163Z,15.53
2023-11-04T14:27:33.948Z,15.53
2023-11-04T14:30:08.579Z,15.53
2023-11-04T14:32:41.358Z,15.52
2023-11-04T14:35:16.765Z,15.52
2023-11-04T14:37:49.350Z,15.52
2023-11-04T14:40:21.902Z,15.50
2023-11-04T14:42:54.391Z,15.48
2023-11-04T14:45:29.113Z,15.46
2023-11-04T14:48:02.367Z,15.47
2023-11-04T14:50:36.984Z,15.49
2023-11-04T14:53:09.582Z,15.51
2023-11-04T14:55:43.524Z,15.52
2023-11-04T14:58:16.358Z,15.53
2023-11-04T15:00:48.977Z,15.54
2023-11-04T15:03:22.746Z,15.55
2023-11-04T15:05:55.867Z,15.55
2023-11-04T15:08:29.294Z,15.57
2023-11-04T15:11:01.871Z,15.55
2023-11-04T15:13:34.649Z,15.53
2023-11-04T15:16:08.235Z,15.52
2023-11-04T15:18:40.931Z,15.53
2023-11-04T15:21:14.666Z,15.54
2023-11-04T15:23:47.224Z,15.54
2023-11-04T15:26:19.964Z,15.55
2023-11-04T15:28:52.833Z,15.56
2023-11-04T15:31:25.449Z,15.59
2023-11-04T15:33:57.894Z,15.60
2023-11-04T15:36:30.300Z,15.60
2023-11-04T15:39:02.753Z,15.60
2023-11-04T15:41:40.323Z,15.57
2023-11-04T15:44:13.178Z,15.57
2023-11-04T15:46:45.876Z,15.55
2023-11-04T15:49:19.095Z,15.54
2023-11-04T15:51:51.523Z,15.54
2023-11-04T15:54:24.917Z,15.56
2023-11-04T15:56:57.795Z,15.60
2023-11-04T15:59:30.359Z,15.63
2023-11-04T16:02:02.933Z,15.66
2023-11-04T16:04:35.702Z,15.68
2023-11-04T16:07:08.208Z,15.66
2023-11-04T16:09:41.828Z,15.65
2023-11-04T16:12:14.306Z,15.64
2023-11-04T16:14:47.013Z,15.66
2023-11-04T16:17:19.405Z,15.65
2023-11-04T16:19:52.103Z,15.69
2023-11-04T16:22:25.127Z,15.71
2023-11-04T16:24:58.448Z,15.74
2023-11-04T16:27:30.859Z,15.75
2023-11-04T16:30:04.477Z,15.78
2023-11-04T16:32:37.147Z,15.80
2023-11-04T16:35:10.234Z,15.78
2023-11-04T16:37:42.714Z,15.79
2023-11-04T16:40:16.013Z,15.81
2023-11-04T16:42:50.394Z,15.83
2023-11-04T16:45:34.345Z,15.86
2023-11-04T16:48:07.153Z,15.88
2023-11-04T16:50:40.832Z,15.90
2023-11-04T16:53:13.730Z,15.94
2023-11-04T16:55:47.044Z,15.98
2023-11-04T16:58:20.349Z,16.02
2023-11-04T17:00:52.923Z,16.05
2023-11-04T17:03:25.768Z,16.07
2023-11-04T17:06:00.215Z,16.06
2023-11-04T17:08:33.498Z,16.07
2023-11-04T17:11:06.015Z,16.07
2023-11-04T17:13:41.156Z,16.06
2023-11-04T17:16:15.357Z,16.10
2023-11-04T17:18:47.900Z,16.11
2023-11-04T17:21:20.285Z,16.13
2023-11-04T17:23:53.118Z,16.14
2023-11-04T17:26:25.601Z,16.14
2023-11-04T17:28:59.137Z,16.15
2023-11-04T17:31:33.537Z,16.16
2023-11-04T17:34:06.218Z,16.16
2023-11-04T17:36:38.829Z,16.18
2023-11-04T17:39:11.611Z,16.19
2023-11-04T17:41:44.152Z,16.24
2023-11-04T17:44:16.704Z,16.28
2023-11-04T17:46:49.108Z,16.30
2023-11-04T17:49:21.780Z,16.33
2023-11-04T17:51:55.985Z,16.35
2023-11-04T17:54:28.424Z,16.38
2023-11-04T17:57:04.565Z,16.40
2023-11-04T17:59:35.817Z,16.42
2023-11-04T18:02:11.607Z,16.43
2023-11-04T18:04:44.789Z,16.45
2023-11-04T18:07:17.995Z,16.48
2023-11-04T18:09:50.447Z,16.48
2023-11-04T18:12:23.212Z,16.49
2023-11-04T18:14:55.654Z,16.49
2023-11-04T18:17:29.029Z,16.49
2023-11-04T18:20:01.690Z,16.48
2023-11-04T18:22:34.758Z,16.47
2023-11-04T18:25:08.409Z,16.48
2023-11-04T18:27:51.605Z,16.49
2023-11-04T18:30:15.739Z,16.50
2023-11-04T18:32:51.652Z,16.51
2023-11-04T18:35:25.248Z,16.55
2023-11-04T18:37:57.776Z,16.56
2023-11-04T18:40:31.194Z,16.60
2023-11-04T18:43:04.955Z,16.63
2023-11-04T18:45:37.466Z,16.72
2023-11-04T18:48:10.121Z,16.83
2023-11-04T18:50:43.448Z,16.85
2023-11-04T18:53:17.051Z,16.85
2023-11-04T18:55:50.237Z,16.81
2023-11-04T18:58:23.924Z,16.79
2023-11-04T19:00:57.100Z,16.79
2023-11-04T19:03:30.123Z,16.78
2023-11-04T19:06:02.841Z,16.77
2023-11-04T19:08:35.510Z,16.75
2023-11-04T19:11:10.052Z,16.74
2023-11-04T19:13:42.876Z,16.73
2023-11-04T19:16:15.431Z,16.69
2023-11-04T19:18:48.387Z,16.68
2023-11-04T19:21:21.360Z,16.67
2023-11-04T19:23:53.888Z,16.67
2023-11-04T19:26:28.199Z,16.68
2023-11-04T19:29:02.383Z,16.69
2023-11-04T19:31:35.228Z,16.66
2023-11-04T19:34:08.094Z,16.64
2023-11-04T19:36:40.610Z,16.63
2023-11-04T19:39:13.266Z,16.63
2023-11-04T19:41:45.772Z,16.64
2023-11-04T19:44:18.386Z,16.64
2023-11-04T19:46:51.646Z,16.65
2023-11-04T19:49:25.361Z,16.65
2023-11-04T19:51:57.827Z,16.67
2023-11-04T19:54:30.468Z,16.66
2023-11-04T19:57:03.661Z,16.65
2023-11-04T19:59:37.764Z,16.63
2023-11-04T20:02:10.187Z,16.62
2023-11-04T20:04:43.739Z,16.61
2023-11-04T20:07:16.490Z,16.57
2023-11-04T20:09:49.479Z,16.54
2023-11-04T20:12:22.898Z,16.51
2023-11-04T20:14:56.262Z,16.51
2023-11-04T20:17:28.975Z,16.51
2023-11-04T20:20:01.540Z,16.51
2023-11-04T20:22:34.165Z,16.51
2023-11-04T20:25:07.345Z,16.51
2023-11-04T20:27:40.270Z,16.54
2023-11-04T20:30:13.266Z,16.56
2023-11-04T20:32:47.171Z,16.56
2023-11-04T20:35:21.108Z,16.58
2023-11-04T20:37:55.276Z,16.60
2023-11-04T20:40:27.984Z,16.62
2023-11-04T20:43:01.427Z,16.62
2023-11-04T20:45:35.092Z,16.63
2023-11-04T20:48:07.757Z,16.63
2023-11-04T20:50:41.486Z,16.65
2023-11-04T20:53:14.050Z,16.69
2023-11-04T20:55:47.340Z,16.72
2023-11-04T20:58:19.920Z,16.76
2023-11-04T21:00:53.764Z,16.77
2023-11-04T21:03:27.631Z,16.79
2023-11-04T21:06:00.198Z,16.81
2023-11-04T21:08:36.008Z,16.81
2023-11-04T21:11:08.565Z,16.85
2023-11-04T21:13:41.170Z,16.87
2023-11-04T21:16:13.705Z,16.90
2023-11-04T21:18:46.903Z,16.92
2023-11-04T21:21:21.076Z,16.94
2023-11-04T21:23:54.158Z,16.96
2023-11-04T21:26:26.761Z,16.98
2023-11-04T21:28:59.648Z,17.03
2023-11-04T21:31:32.178Z,17.07
2023-11-04T21:34:04.896Z,17.11
2023-11-04T21:36:38.036Z,17.15
2023-11-04T21:39:12.105Z,17.17
2023-11-04T21:41:45.498Z,17.19
2023-11-04T21:44:19.002Z,17.22
2023-11-04T21:46:52.130Z,17.25
2023-11-04T21:49:25.001Z,17.28
2023-11-04T21:51:57.538Z,17.29
2023-11-04T21:54:30.715Z,17.33
2023-11-04T21:57:04.611Z,17.38
2023-11-04T21:59:37.349Z,17.39
2023-11-04T22:02:09.983Z,17.40
2023-11-04T22:04:42.526Z,17.41
2023-11-04T22:07:15.120Z,17.44
2023-11-04T22:09:47.485Z,17.45
2023-11-04T22:12:20.170Z,17.45
2023-11-04T22:14:53.255Z,17.47
2023-11-04T22:17:26.771Z,17.46
2023-11-04T22:19:59.499Z,17.46
2023-11-04T22:22:32.911Z,17.47
2023-11-04T22:25:05.863Z,17.47
2023-11-04T22:27:38.677Z,17.45
2023-11-04T22:30:12.928Z,17.40
2023-11-04T22:32:45.305Z,17.36
2023-11-04T22:35:17.650Z,17.30
2023-11-04T22:37:50.734Z,17.25
2023-11-04T22:40:23.409Z,17.22
2023-11-04T22:42:55.805Z,17.19
2023-11-04T22:45:28.259Z,17.17
2023-11-04T22:48:00.798Z,17.17
2023-11-04T22:50:33.734Z,17.19
2023-11-04T22:53:06.043Z,17.19
2023-11-04T22:55:39.700Z,17.19
2023-11-04T22:58:12.540Z,17.19
2023-11-04T23:00:46.023Z,17.20
2023-11-04T23:03:18.590Z,17.25
2023-11-04T23:05:51.348Z,17.25
2023-11-04T23:08:24.016Z,17.25
2023-11-04T23:10:57.267Z,17.28
2023-11-04T23:13:29.694Z,17.29
2023-11-04T23:16:02.209Z,17.29
2023-11-04T23:18:35.003Z,17.29
2023-11-04T23:21:08.852Z,17.31
2023-11-04T23:23:41.216Z,17.31
2023-11-04T23:26:13.791Z,17.32
2023-11-04T23:28:46.121Z,17.30
2023-11-04T23:31:18.740Z,17.29
2023-11-04T23:33:51.602Z,17.28
2023-11-04T23:36:24.301Z,17.25
2023-11-04T23:38:56.736Z,17.25
2023-11-04T23:41:29.266Z,17.25
2023-11-04T23:44:01.807Z,17.24
2023-11-04T23:46:34.445Z,17.20
2023-11-04T23:49:06.900Z,17.19
2023-11-04T23:51:39.313Z,17.18
2023-11-04T23:54:11.677Z,17.15
2023-11-04T23:56:44.300Z,17.15
2023-11-04T23:59:16.645Z,17.16
